Caroline, Ohio
Current Conditions -  °F | °C
As of 6:52 PM on Saturday 22 Nov 2014 (Local Time) from KMFD Reporting Station
Overcast Overcast  
Wind Chill: 42°   Ceiling: 3800
Heat Index: 47°   Visibility: 10mi
Dew Point: 37°   Wind: 12mph
Humidity: 68%   Direction: 180°S
Pressure: 30.05"   Gusts: NA
Location:  41.0654°N, 82.876°W
Report Text: KMFD 222352Z 18010KT 10SM OVC038 08/03 A3005 RMK AO2 SLP186 60001 T00830028 10100 20072 56003
Loading
Personal Weather Stations






























Interactive Weather Map New forecast layout! Learn more

10-Day Weather Forecast

Advertisements
Track Severe Weather on mobile